sensor_id;sensor_type;location;lat;lon;timestamp;P1;durP1;ratioP1;P2;durP2;ratioP2
61505;SDS011;47366;51.916;4.574;2022-09-29T00:02:16;2.60;;;1.52;;
61505;SDS011;47366;51.916;4.574;2022-09-29T00:04:42;2.30;;;1.52;;
61505;SDS011;47366;51.916;4.574;2022-09-29T00:07:07;3.50;;;1.90;;
61505;SDS011;47366;51.916;4.574;2022-09-29T00:09:32;3.53;;;1.60;;
61505;SDS011;47366;51.916;4.574;2022-09-29T00:11:58;3.25;;;1.60;;
61505;SDS011;47366;51.916;4.574;2022-09-29T00:14:23;7.97;;;2.28;;
61505;SDS011;47366;51.916;4.574;2022-09-29T00:16:48;4.07;;;1.80;;
61505;SDS011;47366;51.916;4.574;2022-09-29T00:19:14;3.08;;;1.73;;
61505;SDS011;47366;51.916;4.574;2022-09-29T00:21:40;3.78;;;1.60;;
61505;SDS011;47366;51.916;4.574;2022-09-29T00:24:05;3.20;;;2.03;;
61505;SDS011;47366;51.916;4.574;2022-09-29T00:26:30;1.95;;;1.42;;
61505;SDS011;47366;51.916;4.574;2022-09-29T00:28:57;3.47;;;2.13;;
61505;SDS011;47366;51.916;4.574;2022-09-29T00:31:24;5.25;;;2.22;;
61505;SDS011;47366;51.916;4.574;2022-09-29T00:33:52;4.43;;;1.90;;
61505;SDS011;47366;51.916;4.574;2022-09-29T00:36:18;3.42;;;2.22;;
61505;SDS011;47366;51.916;4.574;2022-09-29T00:38:44;4.15;;;2.00;;
61505;SDS011;47366;51.916;4.574;2022-09-29T00:41:16;2.90;;;1.73;;
61505;SDS011;47366;51.916;4.574;2022-09-29T00:46:13;4.60;;;2.15;;
61505;SDS011;47366;51.916;4.574;2022-09-29T00:48:43;3.17;;;2.00;;
61505;SDS011;47366;51.916;4.574;2022-09-29T00:51:10;4.28;;;2.45;;
61505;SDS011;47366;51.916;4.574;2022-09-29T00:53:35;2.53;;;1.63;;
61505;SDS011;47366;51.916;4.574;2022-09-29T00:56:02;2.85;;;1.85;;
61505;SDS011;47366;51.916;4.574;2022-09-29T00:58:32;4.97;;;2.65;;
61505;SDS011;47366;51.916;4.574;2022-09-29T01:01:01;3.28;;;1.90;;
61505;SDS011;47366;51.916;4.574;2022-09-29T01:03:28;4.03;;;2.20;;
61505;SDS011;47366;51.916;4.574;2022-09-29T01:06:02;3.53;;;2.20;;
61505;SDS011;47366;51.916;4.574;2022-09-29T01:08:50;3.20;;;1.83;;
61505;SDS011;47366;51.916;4.574;2022-09-29T01:11:22;6.30;;;2.53;;
61505;SDS011;47366;51.916;4.574;2022-09-29T01:13:48;3.75;;;2.03;;
61505;SDS011;47366;51.916;4.574;2022-09-29T01:16:14;3.42;;;2.05;;
61505;SDS011;47366;51.916;4.574;2022-09-29T01:18:40;5.40;;;2.47;;
61505;SDS011;47366;51.916;4.574;2022-09-29T01:29:50;4.28;;;2.25;;
61505;SDS011;47366;51.916;4.574;2022-09-29T01:35:36;6.32;;;2.30;;
61505;SDS011;47366;51.916;4.574;2022-09-29T01:38:14;4.38;;;2.70;;
61505;SDS011;47366;51.916;4.574;2022-09-29T01:43:20;5.13;;;2.78;;
61505;SDS011;47366;51.916;4.574;2022-09-29T01:46:37;3.50;;;2.15;;
61505;SDS011;47366;51.916;4.574;2022-09-29T01:48:46;3.85;;;1.77;;
61505;SDS011;47366;51.916;4.574;2022-09-29T01:51:18;3.20;;;2.17;;
61505;SDS011;47366;51.916;4.574;2022-09-29T01:53:49;3.92;;;2.28;;
61505;SDS011;47366;51.916;4.574;2022-09-29T01:56:24;4.53;;;2.42;;
61505;SDS011;47366;51.916;4.574;2022-09-29T01:58:57;2.88;;;1.73;;
61505;SDS011;47366;51.916;4.574;2022-09-29T02:01:30;4.85;;;3.03;;
61505;SDS011;47366;51.916;4.574;2022-09-29T02:04:20;9.38;;;2.35;;
61505;SDS011;47366;51.916;4.574;2022-09-29T02:06:54;3.75;;;1.75;;
61505;SDS011;47366;51.916;4.574;2022-09-29T02:09:25;9.20;;;3.85;;
61505;SDS011;47366;51.916;4.574;2022-09-29T02:11:54;4.93;;;2.38;;
61505;SDS011;47366;51.916;4.574;2022-09-29T02:14:24;9.15;;;3.53;;
61505;SDS011;47366;51.916;4.574;2022-09-29T02:17:06;6.72;;;3.10;;
61505;SDS011;47366;51.916;4.574;2022-09-29T02:19:37;8.13;;;2.80;;
61505;SDS011;47366;51.916;4.574;2022-09-29T02:22:06;7.35;;;3.35;;
61505;SDS011;47366;51.916;4.574;2022-09-29T02:24:32;6.97;;;3.25;;
61505;SDS011;47366;51.916;4.574;2022-09-29T02:26:57;7.68;;;3.22;;
61505;SDS011;47366;51.916;4.574;2022-09-29T02:29:23;4.97;;;2.90;;
61505;SDS011;47366;51.916;4.574;2022-09-29T02:31:48;6.38;;;3.35;;
61505;SDS011;47366;51.916;4.574;2022-09-29T02:34:15;7.10;;;3.53;;
61505;SDS011;47366;51.916;4.574;2022-09-29T02:39:42;8.82;;;2.95;;
61505;SDS011;47366;51.916;4.574;2022-09-29T02:45:10;7.38;;;3.33;;
61505;SDS011;47366;51.916;4.574;2022-09-29T02:53:38;8.38;;;3.15;;
61505;SDS011;47366;51.916;4.574;2022-09-29T02:56:22;5.80;;;3.47;;
61505;SDS011;47366;51.916;4.574;2022-09-29T03:02:06;6.38;;;2.83;;
61505;SDS011;47366;51.916;4.574;2022-09-29T03:04:32;5.88;;;3.35;;
61505;SDS011;47366;51.916;4.574;2022-09-29T03:06:57;5.80;;;3.20;;
61505;SDS011;47366;51.916;4.574;2022-09-29T03:09:22;5.20;;;2.78;;
61505;SDS011;47366;51.916;4.574;2022-09-29T03:11:48;4.88;;;3.00;;
61505;SDS011;47366;51.916;4.574;2022-09-29T03:14:13;5.85;;;2.65;;
61505;SDS011;47366;51.916;4.574;2022-09-29T03:16:38;5.18;;;2.97;;
61505;SDS011;47366;51.916;4.574;2022-09-29T03:19:04;4.55;;;2.35;;
61505;SDS011;47366;51.916;4.574;2022-09-29T03:21:31;5.55;;;2.83;;
61505;SDS011;47366;51.916;4.574;2022-09-29T03:23:57;6.10;;;2.88;;
61505;SDS011;47366;51.916;4.574;2022-09-29T03:26:22;4.38;;;2.53;;
61505;SDS011;47366;51.916;4.574;2022-09-29T03:28:48;6.53;;;2.65;;
61505;SDS011;47366;51.916;4.574;2022-09-29T03:31:14;6.18;;;2.88;;
61505;SDS011;47366;51.916;4.574;2022-09-29T03:33:40;4.85;;;3.05;;
61505;SDS011;47366;51.916;4.574;2022-09-29T03:36:05;5.45;;;2.53;;
61505;SDS011;47366;51.916;4.574;2022-09-29T03:38:32;5.03;;;2.88;;
61505;SDS011;47366;51.916;4.574;2022-09-29T03:40:58;4.82;;;2.83;;
61505;SDS011;47366;51.916;4.574;2022-09-29T03:43:24;4.10;;;2.35;;
61505;SDS011;47366;51.916;4.574;2022-09-29T03:45:49;7.38;;;3.67;;
61505;SDS011;47366;51.916;4.574;2022-09-29T03:48:16;5.13;;;2.83;;
61505;SDS011;47366;51.916;4.574;2022-09-29T03:50:43;9.57;;;3.25;;
61505;SDS011;47366;51.916;4.574;2022-09-29T03:53:09;4.47;;;2.85;;
61505;SDS011;47366;51.916;4.574;2022-09-29T03:55:35;6.35;;;2.88;;
61505;SDS011;47366;51.916;4.574;2022-09-29T03:58:00;5.82;;;3.15;;
61505;SDS011;47366;51.916;4.574;2022-09-29T04:00:25;4.43;;;2.95;;
61505;SDS011;47366;51.916;4.574;2022-09-29T04:02:53;4.78;;;2.95;;
61505;SDS011;47366;51.916;4.574;2022-09-29T04:05:18;6.60;;;2.65;;
61505;SDS011;47366;51.916;4.574;2022-09-29T04:07:44;7.93;;;3.83;;
61505;SDS011;47366;51.916;4.574;2022-09-29T04:10:09;8.38;;;3.85;;
61505;SDS011;47366;51.916;4.574;2022-09-29T04:12:34;6.72;;;4.10;;
61505;SDS011;47366;51.916;4.574;2022-09-29T04:15:00;12.00;;;3.70;;
61505;SDS011;47366;51.916;4.574;2022-09-29T04:17:25;6.30;;;3.13;;
61505;SDS011;47366;51.916;4.574;2022-09-29T04:19:50;9.57;;;3.22;;
61505;SDS011;47366;51.916;4.574;2022-09-29T04:22:16;5.57;;;2.40;;
61505;SDS011;47366;51.916;4.574;2022-09-29T04:24:43;6.82;;;3.95;;
61505;SDS011;47366;51.916;4.574;2022-09-29T04:27:08;4.18;;;2.30;;
61505;SDS011;47366;51.916;4.574;2022-09-29T04:29:34;7.85;;;3.38;;
61505;SDS011;47366;51.916;4.574;2022-09-29T04:31:59;7.25;;;3.75;;
61505;SDS011;47366;51.916;4.574;2022-09-29T04:34:25;5.07;;;3.28;;
61505;SDS011;47366;51.916;4.574;2022-09-29T04:36:50;5.00;;;2.88;;
61505;SDS011;47366;51.916;4.574;2022-09-29T04:39:15;3.67;;;2.10;;
61505;SDS011;47366;51.916;4.574;2022-09-29T04:41:40;6.32;;;2.90;;
61505;SDS011;47366;51.916;4.574;2022-09-29T04:44:06;5.43;;;3.00;;
61505;SDS011;47366;51.916;4.574;2022-09-29T04:46:31;6.97;;;3.30;;
61505;SDS011;47366;51.916;4.574;2022-09-29T04:48:57;7.35;;;4.03;;
61505;SDS011;47366;51.916;4.574;2022-09-29T04:51:22;9.00;;;3.65;;
61505;SDS011;47366;51.916;4.574;2022-09-29T04:53:47;6.43;;;3.25;;
61505;SDS011;47366;51.916;4.574;2022-09-29T04:56:13;5.97;;;2.78;;
61505;SDS011;47366;51.916;4.574;2022-09-29T04:58:38;5.20;;;2.97;;
61505;SDS011;47366;51.916;4.574;2022-09-29T05:01:04;6.80;;;3.55;;
61505;SDS011;47366;51.916;4.574;2022-09-29T05:03:31;7.38;;;3.50;;
61505;SDS011;47366;51.916;4.574;2022-09-29T05:05:56;6.95;;;3.03;;
61505;SDS011;47366;51.916;4.574;2022-09-29T05:08:22;5.95;;;2.97;;
61505;SDS011;47366;51.916;4.574;2022-09-29T05:10:47;4.15;;;2.92;;
61505;SDS011;47366;51.916;4.574;2022-09-29T05:13:15;5.43;;;3.42;;
61505;SDS011;47366;51.916;4.574;2022-09-29T05:15:40;7.63;;;3.03;;
61505;SDS011;47366;51.916;4.574;2022-09-29T05:18:05;4.57;;;2.80;;
61505;SDS011;47366;51.916;4.574;2022-09-29T05:20:31;6.00;;;2.53;;
61505;SDS011;47366;51.916;4.574;2022-09-29T05:22:57;7.95;;;3.78;;
61505;SDS011;47366;51.916;4.574;2022-09-29T05:25:23;6.15;;;2.67;;
61505;SDS011;47366;51.916;4.574;2022-09-29T05:27:50;4.35;;;2.72;;
61505;SDS011;47366;51.916;4.574;2022-09-29T05:30:15;6.28;;;2.90;;
61505;SDS011;47366;51.916;4.574;2022-09-29T05:32:41;5.95;;;3.53;;
61505;SDS011;47366;51.916;4.574;2022-09-29T05:35:08;4.90;;;3.15;;
61505;SDS011;47366;51.916;4.574;2022-09-29T05:37:33;8.93;;;3.38;;
61505;SDS011;47366;51.916;4.574;2022-09-29T05:39:58;8.80;;;4.38;;
61505;SDS011;47366;51.916;4.574;2022-09-29T05:42:24;6.60;;;3.20;;
61505;SDS011;47366;51.916;4.574;2022-09-29T05:44:49;7.75;;;3.40;;
61505;SDS011;47366;51.916;4.574;2022-09-29T05:47:15;9.32;;;4.30;;
61505;SDS011;47366;51.916;4.574;2022-09-29T05:49:40;17.45;;;4.60;;
61505;SDS011;47366;51.916;4.574;2022-09-29T05:52:06;7.57;;;4.00;;
61505;SDS011;47366;51.916;4.574;2022-09-29T05:54:31;9.70;;;4.28;;
61505;SDS011;47366;51.916;4.574;2022-09-29T05:56:57;9.95;;;4.80;;
61505;SDS011;47366;51.916;4.574;2022-09-29T05:59:22;10.63;;;5.47;;
61505;SDS011;47366;51.916;4.574;2022-09-29T06:01:48;15.13;;;5.18;;
61505;SDS011;47366;51.916;4.574;2022-09-29T06:04:13;17.00;;;4.78;;
61505;SDS011;47366;51.916;4.574;2022-09-29T06:06:39;9.63;;;4.95;;
61505;SDS011;47366;51.916;4.574;2022-09-29T06:09:05;13.82;;;5.10;;
61505;SDS011;47366;51.916;4.574;2022-09-29T06:11:30;8.88;;;4.93;;
61505;SDS011;47366;51.916;4.574;2022-09-29T06:13:56;8.02;;;4.28;;
61505;SDS011;47366;51.916;4.574;2022-09-29T06:16:24;13.30;;;4.50;;
61505;SDS011;47366;51.916;4.574;2022-09-29T06:18:51;7.80;;;4.30;;
61505;SDS011;47366;51.916;4.574;2022-09-29T06:21:18;10.55;;;4.45;;
61505;SDS011;47366;51.916;4.574;2022-09-29T06:23:47;8.07;;;4.18;;
61505;SDS011;47366;51.916;4.574;2022-09-29T06:26:14;9.02;;;4.30;;
61505;SDS011;47366;51.916;4.574;2022-09-29T06:28:40;10.98;;;5.18;;
61505;SDS011;47366;51.916;4.574;2022-09-29T06:31:07;7.55;;;3.80;;
61505;SDS011;47366;51.916;4.574;2022-09-29T06:33:35;8.68;;;5.00;;
61505;SDS011;47366;51.916;4.574;2022-09-29T06:36:02;6.38;;;4.13;;
61505;SDS011;47366;51.916;4.574;2022-09-29T06:39:11;3.92;;;2.83;;
61505;SDS011;47366;51.916;4.574;2022-09-29T06:41:38;14.80;;;4.07;;
61505;SDS011;47366;51.916;4.574;2022-09-29T06:44:04;6.25;;;3.95;;
61505;SDS011;47366;51.916;4.574;2022-09-29T06:46:29;4.47;;;3.22;;
61505;SDS011;47366;51.916;4.574;2022-09-29T06:48:56;6.57;;;3.53;;
61505;SDS011;47366;51.916;4.574;2022-09-29T06:51:22;5.60;;;2.97;;
61505;SDS011;47366;51.916;4.574;2022-09-29T06:53:48;6.15;;;3.58;;
61505;SDS011;47366;51.916;4.574;2022-09-29T06:56:14;3.00;;;2.20;;
61505;SDS011;47366;51.916;4.574;2022-09-29T06:58:40;7.47;;;3.38;;
61505;SDS011;47366;51.916;4.574;2022-09-29T07:01:06;8.05;;;3.13;;
61505;SDS011;47366;51.916;4.574;2022-09-29T07:03:32;6.35;;;3.38;;
61505;SDS011;47366;51.916;4.574;2022-09-29T07:06:03;6.15;;;3.67;;
61505;SDS011;47366;51.916;4.574;2022-09-29T07:08:29;8.98;;;2.38;;
61505;SDS011;47366;51.916;4.574;2022-09-29T07:10:55;4.88;;;3.30;;
61505;SDS011;47366;51.916;4.574;2022-09-29T07:13:21;6.43;;;2.90;;
61505;SDS011;47366;51.916;4.574;2022-09-29T07:15:46;6.47;;;3.80;;
61505;SDS011;47366;51.916;4.574;2022-09-29T07:18:12;4.05;;;2.65;;
61505;SDS011;47366;51.916;4.574;2022-09-29T07:20:37;4.72;;;3.17;;
61505;SDS011;47366;51.916;4.574;2022-09-29T07:23:03;5.13;;;3.03;;
61505;SDS011;47366;51.916;4.574;2022-09-29T07:25:30;5.05;;;3.28;;
61505;SDS011;47366;51.916;4.574;2022-09-29T07:27:55;6.05;;;2.92;;
61505;SDS011;47366;51.916;4.574;2022-09-29T07:30:20;5.43;;;3.70;;
61505;SDS011;47366;51.916;4.574;2022-09-29T07:32:46;4.85;;;3.20;;
61505;SDS011;47366;51.916;4.574;2022-09-29T07:35:11;5.43;;;2.67;;
61505;SDS011;47366;51.916;4.574;2022-09-29T07:37:36;6.95;;;4.28;;
61505;SDS011;47366;51.916;4.574;2022-09-29T07:40:02;6.50;;;3.85;;
61505;SDS011;47366;51.916;4.574;2022-09-29T07:42:27;5.43;;;3.40;;
61505;SDS011;47366;51.916;4.574;2022-09-29T07:44:55;4.50;;;3.38;;
61505;SDS011;47366;51.916;4.574;2022-09-29T07:47:21;5.30;;;3.03;;
61505;SDS011;47366;51.916;4.574;2022-09-29T07:49:46;5.90;;;3.63;;
61505;SDS011;47366;51.916;4.574;2022-09-29T07:52:13;5.28;;;3.28;;
61505;SDS011;47366;51.916;4.574;2022-09-29T07:54:38;4.65;;;2.90;;
61505;SDS011;47366;51.916;4.574;2022-09-29T07:57:04;6.57;;;3.17;;
61505;SDS011;47366;51.916;4.574;2022-09-29T07:59:29;5.45;;;3.03;;
61505;SDS011;47366;51.916;4.574;2022-09-29T08:01:55;6.68;;;4.03;;
61505;SDS011;47366;51.916;4.574;2022-09-29T08:04:21;8.95;;;3.92;;
61505;SDS011;47366;51.916;4.574;2022-09-29T08:06:46;4.63;;;3.17;;
61505;SDS011;47366;51.916;4.574;2022-09-29T08:09:12;6.85;;;3.33;;
61505;SDS011;47366;51.916;4.574;2022-09-29T08:11:38;6.38;;;2.85;;
61505;SDS011;47366;51.916;4.574;2022-09-29T08:14:06;7.57;;;3.63;;
61505;SDS011;47366;51.916;4.574;2022-09-29T08:16:33;4.13;;;2.95;;
61505;SDS011;47366;51.916;4.574;2022-09-29T08:18:59;7.88;;;3.38;;
61505;SDS011;47366;51.916;4.574;2022-09-29T08:21:25;9.50;;;4.72;;
61505;SDS011;47366;51.916;4.574;2022-09-29T08:23:51;4.95;;;3.30;;
61505;SDS011;47366;51.916;4.574;2022-09-29T08:26:17;6.40;;;3.30;;
61505;SDS011;47366;51.916;4.574;2022-09-29T08:28:44;8.18;;;3.47;;
61505;SDS011;47366;51.916;4.574;2022-09-29T08:31:11;6.05;;;3.80;;
61505;SDS011;47366;51.916;4.574;2022-09-29T08:33:38;6.93;;;3.53;;
61505;SDS011;47366;51.916;4.574;2022-09-29T08:36:05;5.65;;;2.80;;
61505;SDS011;47366;51.916;4.574;2022-09-29T08:38:39;6.63;;;3.58;;
61505;SDS011;47366;51.916;4.574;2022-09-29T08:41:11;6.50;;;3.85;;
61505;SDS011;47366;51.916;4.574;2022-09-29T08:46:38;6.25;;;3.97;;
61505;SDS011;47366;51.916;4.574;2022-09-29T08:49:28;4.93;;;3.33;;
61505;SDS011;47366;51.916;4.574;2022-09-29T08:52:09;4.97;;;3.30;;
61505;SDS011;47366;51.916;4.574;2022-09-29T08:54:40;5.60;;;3.83;;
61505;SDS011;47366;51.916;4.574;2022-09-29T08:57:14;8.45;;;2.90;;
61505;SDS011;47366;51.916;4.574;2022-09-29T08:59:45;3.95;;;2.78;;
61505;SDS011;47366;51.916;4.574;2022-09-29T09:21:51;4.25;;;2.63;;
61505;SDS011;47366;51.916;4.574;2022-09-29T09:24:30;6.13;;;3.33;;
61505;SDS011;47366;51.916;4.574;2022-09-29T09:27:06;4.32;;;2.53;;
61505;SDS011;47366;51.916;4.574;2022-09-29T09:29:41;4.80;;;3.22;;
61505;SDS011;47366;51.916;4.574;2022-09-29T09:32:08;6.55;;;3.05;;
61505;SDS011;47366;51.916;4.574;2022-09-29T09:37:48;5.05;;;1.90;;
61505;SDS011;47366;51.916;4.574;2022-09-29T09:43:06;6.28;;;3.42;;
61505;SDS011;47366;51.916;4.574;2022-09-29T09:45:37;4.77;;;3.20;;
61505;SDS011;47366;51.916;4.574;2022-09-29T09:51:39;4.95;;;3.03;;
61505;SDS011;47366;51.916;4.574;2022-09-29T09:54:10;4.85;;;2.58;;
61505;SDS011;47366;51.916;4.574;2022-09-29T09:56:42;6.03;;;2.43;;
61505;SDS011;47366;51.916;4.574;2022-09-29T10:01:44;10.10;;;3.55;;
61505;SDS011;47366;51.916;4.574;2022-09-29T10:04:12;7.32;;;3.47;;
61505;SDS011;47366;51.916;4.574;2022-09-29T10:06:38;9.75;;;3.03;;
61505;SDS011;47366;51.916;4.574;2022-09-29T10:09:04;6.95;;;3.22;;
61505;SDS011;47366;51.916;4.574;2022-09-29T10:11:30;5.70;;;3.17;;
61505;SDS011;47366;51.916;4.574;2022-09-29T10:13:58;5.57;;;2.63;;
61505;SDS011;47366;51.916;4.574;2022-09-29T10:16:30;5.57;;;3.08;;
61505;SDS011;47366;51.916;4.574;2022-09-29T10:19:05;5.22;;;3.17;;
61505;SDS011;47366;51.916;4.574;2022-09-29T10:23:56;5.00;;;2.78;;
61505;SDS011;47366;51.916;4.574;2022-09-29T10:28:56;6.88;;;2.78;;
61505;SDS011;47366;51.916;4.574;2022-09-29T10:31:25;4.82;;;2.20;;
61505;SDS011;47366;51.916;4.574;2022-09-29T10:33:53;5.75;;;2.40;;
61505;SDS011;47366;51.916;4.574;2022-09-29T10:36:19;7.85;;;2.38;;
61505;SDS011;47366;51.916;4.574;2022-09-29T10:38:47;3.47;;;1.77;;
61505;SDS011;47366;51.916;4.574;2022-09-29T10:41:15;2.58;;;1.40;;
61505;SDS011;47366;51.916;4.574;2022-09-29T10:43:43;11.27;;;2.42;;
61505;SDS011;47366;51.916;4.574;2022-09-29T10:49:12;4.32;;;2.20;;
61505;SDS011;47366;51.916;4.574;2022-09-29T10:51:50;5.45;;;1.95;;
61505;SDS011;47366;51.916;4.574;2022-09-29T10:54:33;3.63;;;1.85;;
61505;SDS011;47366;51.916;4.574;2022-09-29T10:57:10;5.03;;;1.67;;
61505;SDS011;47366;51.916;4.574;2022-09-29T10:59:44;6.75;;;1.75;;
61505;SDS011;47366;51.916;4.574;2022-09-29T11:02:14;2.22;;;1.15;;
61505;SDS011;47366;51.916;4.574;2022-09-29T11:04:47;2.00;;;1.00;;
61505;SDS011;47366;51.916;4.574;2022-09-29T11:07:12;2.85;;;1.45;;
61505;SDS011;47366;51.916;4.574;2022-09-29T11:09:39;2.13;;;1.27;;
61505;SDS011;47366;51.916;4.574;2022-09-29T11:12:23;1.88;;;1.20;;
61505;SDS011;47366;51.916;4.574;2022-09-29T11:14:51;2.78;;;1.20;;
61505;SDS011;47366;51.916;4.574;2022-09-29T11:17:24;9.57;;;1.90;;
61505;SDS011;47366;51.916;4.574;2022-09-29T11:19:54;2.88;;;1.88;;
61505;SDS011;47366;51.916;4.574;2022-09-29T11:22:35;3.45;;;1.73;;
61505;SDS011;47366;51.916;4.574;2022-09-29T11:25:17;3.22;;;1.55;;
61505;SDS011;47366;51.916;4.574;2022-09-29T11:30:25;1.77;;;1.30;;
61505;SDS011;47366;51.916;4.574;2022-09-29T11:35:49;3.50;;;1.35;;
61505;SDS011;47366;51.916;4.574;2022-09-29T11:38:20;2.35;;;1.27;;
61505;SDS011;47366;51.916;4.574;2022-09-29T11:43:43;2.73;;;1.33;;
61505;SDS011;47366;51.916;4.574;2022-09-29T11:48:58;1.80;;;1.50;;
61505;SDS011;47366;51.916;4.574;2022-09-29T11:51:49;2.25;;;1.23;;
61505;SDS011;47366;51.916;4.574;2022-09-29T12:11:10;1.13;;;0.80;;
61505;SDS011;47366;51.916;4.574;2022-09-29T12:14:00;2.10;;;1.10;;
61505;SDS011;47366;51.916;4.574;2022-09-29T12:16:35;1.20;;;0.80;;
61505;SDS011;47366;51.916;4.574;2022-09-29T12:19:13;1.88;;;1.13;;
61505;SDS011;47366;51.916;4.574;2022-09-29T12:21:43;1.52;;;1.15;;
61505;SDS011;47366;51.916;4.574;2022-09-29T12:26:58;2.65;;;1.40;;
61505;SDS011;47366;51.916;4.574;2022-09-29T12:29:32;2.60;;;1.30;;
61505;SDS011;47366;51.916;4.574;2022-09-29T12:32:03;1.52;;;0.85;;
61505;SDS011;47366;51.916;4.574;2022-09-29T12:35:11;0.90;;;0.60;;
61505;SDS011;47366;51.916;4.574;2022-09-29T12:37:38;1.38;;;0.50;;
61505;SDS011;47366;51.916;4.574;2022-09-29T12:40:23;3.83;;;0.80;;
61505;SDS011;47366;51.916;4.574;2022-09-29T12:43:04;4.43;;;0.63;;
61505;SDS011;47366;51.916;4.574;2022-09-29T12:45:59;0.80;;;0.60;;
61505;SDS011;47366;51.916;4.574;2022-09-29T12:50:58;0.70;;;0.60;;
61505;SDS011;47366;51.916;4.574;2022-09-29T12:53:33;0.68;;;0.50;;
61505;SDS011;47366;51.916;4.574;2022-09-29T12:58:40;1.98;;;0.80;;
61505;SDS011;47366;51.916;4.574;2022-09-29T13:01:20;1.67;;;0.73;;
61505;SDS011;47366;51.916;4.574;2022-09-29T13:07:08;0.77;;;0.60;;
61505;SDS011;47366;51.916;4.574;2022-09-29T13:28:44;1.25;;;0.75;;
61505;SDS011;47366;51.916;4.574;2022-09-29T13:31:19;1.65;;;0.77;;
61505;SDS011;47366;51.916;4.574;2022-09-29T13:33:52;2.10;;;0.95;;
61505;SDS011;47366;51.916;4.574;2022-09-29T13:36:23;1.10;;;0.68;;
61505;SDS011;47366;51.916;4.574;2022-09-29T13:38:54;1.83;;;0.85;;
61505;SDS011;47366;51.916;4.574;2022-09-29T13:49:15;1.77;;;1.00;;
61505;SDS011;47366;51.916;4.574;2022-09-29T13:51:51;2.28;;;1.33;;
61505;SDS011;47366;51.916;4.574;2022-09-29T13:59:45;1.20;;;0.75;;
61505;SDS011;47366;51.916;4.574;2022-09-29T14:02:37;0.98;;;0.63;;
61505;SDS011;47366;51.916;4.574;2022-09-29T14:05:05;1.40;;;0.77;;
61505;SDS011;47366;51.916;4.574;2022-09-29T14:10:23;1.42;;;0.80;;
61505;SDS011;47366;51.916;4.574;2022-09-29T14:12:57;1.95;;;0.88;;
61505;SDS011;47366;51.916;4.574;2022-09-29T14:15:27;0.83;;;0.73;;
61505;SDS011;47366;51.916;4.574;2022-09-29T14:17:58;1.33;;;0.55;;
61505;SDS011;47366;51.916;4.574;2022-09-29T14:20:30;1.17;;;0.52;;
61505;SDS011;47366;51.916;4.574;2022-09-29T14:25:30;1.50;;;0.80;;
61505;SDS011;47366;51.916;4.574;2022-09-29T14:28:09;4.65;;;1.00;;
61505;SDS011;47366;51.916;4.574;2022-09-29T14:30:43;2.25;;;0.80;;
61505;SDS011;47366;51.916;4.574;2022-09-29T14:33:14;1.88;;;0.98;;
61505;SDS011;47366;51.916;4.574;2022-09-29T14:38:26;0.73;;;0.50;;
61505;SDS011;47366;51.916;4.574;2022-09-29T14:41:00;1.20;;;0.45;;
61505;SDS011;47366;51.916;4.574;2022-09-29T15:03:35;1.35;;;0.77;;
61505;SDS011;47366;51.916;4.574;2022-09-29T15:06:18;0.95;;;0.52;;
61505;SDS011;47366;51.916;4.574;2022-09-29T15:08:58;0.90;;;0.63;;
61505;SDS011;47366;51.916;4.574;2022-09-29T15:11:32;0.80;;;0.55;;
61505;SDS011;47366;51.916;4.574;2022-09-29T15:25:22;1.52;;;1.02;;
61505;SDS011;47366;51.916;4.574;2022-09-29T15:27:53;2.40;;;1.23;;
61505;SDS011;47366;51.916;4.574;2022-09-29T15:30:23;1.80;;;1.05;;
61505;SDS011;47366;51.916;4.574;2022-09-29T15:32:48;1.90;;;1.10;;
61505;SDS011;47366;51.916;4.574;2022-09-29T15:35:20;0.73;;;0.50;;
61505;SDS011;47366;51.916;4.574;2022-09-29T15:40:17;1.38;;;0.90;;
61505;SDS011;47366;51.916;4.574;2022-09-29T15:45:16;0.82;;;0.68;;
61505;SDS011;47366;51.916;4.574;2022-09-29T15:48:04;2.20;;;0.95;;
61505;SDS011;47366;51.916;4.574;2022-09-29T15:50:32;4.43;;;0.80;;
61505;SDS011;47366;51.916;4.574;2022-09-29T15:53:05;2.00;;;0.90;;
61505;SDS011;47366;51.916;4.574;2022-09-29T15:55:31;0.50;;;0.50;;
61505;SDS011;47366;51.916;4.574;2022-09-29T15:57:57;4.57;;;0.63;;
61505;SDS011;47366;51.916;4.574;2022-09-29T16:02:51;6.13;;;1.85;;
61505;SDS011;47366;51.916;4.574;2022-09-29T16:05:27;5.18;;;2.45;;
61505;SDS011;47366;51.916;4.574;2022-09-29T16:10:27;6.40;;;1.30;;
61505;SDS011;47366;51.916;4.574;2022-09-29T16:12:58;1.35;;;1.02;;
61505;SDS011;47366;51.916;4.574;2022-09-29T16:15:43;3.38;;;1.92;;
61505;SDS011;47366;51.916;4.574;2022-09-29T16:18:24;3.55;;;2.45;;
61505;SDS011;47366;51.916;4.574;2022-09-29T16:20:53;3.55;;;2.22;;
61505;SDS011;47366;51.916;4.574;2022-09-29T16:28:35;2.58;;;1.33;;
61505;SDS011;47366;51.916;4.574;2022-09-29T16:31:03;2.50;;;1.17;;
61505;SDS011;47366;51.916;4.574;2022-09-29T16:33:43;1.52;;;0.98;;
61505;SDS011;47366;51.916;4.574;2022-09-29T16:38:44;1.42;;;1.08;;
61505;SDS011;47366;51.916;4.574;2022-09-29T16:43:41;1.65;;;0.93;;
61505;SDS011;47366;51.916;4.574;2022-09-29T16:46:10;2.25;;;1.17;;
61505;SDS011;47366;51.916;4.574;2022-09-29T16:48:41;1.02;;;0.85;;
61505;SDS011;47366;51.916;4.574;2022-09-29T16:51:12;1.23;;;0.75;;
61505;SDS011;47366;51.916;4.574;2022-09-29T16:53:40;5.18;;;1.30;;
61505;SDS011;47366;51.916;4.574;2022-09-29T16:56:09;5.18;;;0.90;;
61505;SDS011;47366;51.916;4.574;2022-09-29T17:01:27;2.65;;;1.05;;
61505;SDS011;47366;51.916;4.574;2022-09-29T17:03:52;2.67;;;1.40;;
61505;SDS011;47366;51.916;4.574;2022-09-29T17:06:17;1.65;;;0.98;;
61505;SDS011;47366;51.916;4.574;2022-09-29T17:08:43;1.02;;;0.70;;
61505;SDS011;47366;51.916;4.574;2022-09-29T17:11:08;3.47;;;1.08;;
61505;SDS011;47366;51.916;4.574;2022-09-29T17:13:34;1.80;;;0.95;;
61505;SDS011;47366;51.916;4.574;2022-09-29T17:15:59;2.03;;;1.20;;
61505;SDS011;47366;51.916;4.574;2022-09-29T17:18:25;2.92;;;1.15;;
61505;SDS011;47366;51.916;4.574;2022-09-29T17:20:52;1.67;;;0.90;;
61505;SDS011;47366;51.916;4.574;2022-09-29T17:23:18;3.03;;;1.33;;
61505;SDS011;47366;51.916;4.574;2022-09-29T17:25:44;1.65;;;1.08;;
61505;SDS011;47366;51.916;4.574;2022-09-29T17:28:18;1.88;;;1.08;;
61505;SDS011;47366;51.916;4.574;2022-09-29T17:30:47;2.22;;;1.20;;
61505;SDS011;47366;51.916;4.574;2022-09-29T17:33:15;2.05;;;0.80;;
61505;SDS011;47366;51.916;4.574;2022-09-29T17:35:43;4.70;;;0.98;;
61505;SDS011;47366;51.916;4.574;2022-09-29T17:38:11;1.38;;;0.88;;
61505;SDS011;47366;51.916;4.574;2022-09-29T17:43:03;1.60;;;0.98;;
61505;SDS011;47366;51.916;4.574;2022-09-29T17:45:28;2.60;;;1.40;;
61505;SDS011;47366;51.916;4.574;2022-09-29T17:47:56;1.23;;;0.90;;
61505;SDS011;47366;51.916;4.574;2022-09-29T17:50:24;2.47;;;1.38;;
61505;SDS011;47366;51.916;4.574;2022-09-29T17:53:13;2.05;;;1.10;;
61505;SDS011;47366;51.916;4.574;2022-09-29T17:55:39;1.77;;;0.98;;
61505;SDS011;47366;51.916;4.574;2022-09-29T17:58:05;1.00;;;0.77;;
61505;SDS011;47366;51.916;4.574;2022-09-29T18:00:32;1.60;;;0.88;;
61505;SDS011;47366;51.916;4.574;2022-09-29T18:03:03;1.80;;;1.05;;
61505;SDS011;47366;51.916;4.574;2022-09-29T18:05:29;2.10;;;1.10;;
61505;SDS011;47366;51.916;4.574;2022-09-29T18:07:56;3.80;;;1.20;;
61505;SDS011;47366;51.916;4.574;2022-09-29T18:10:24;0.85;;;0.52;;
61505;SDS011;47366;51.916;4.574;2022-09-29T18:12:55;1.77;;;0.90;;
61505;SDS011;47366;51.916;4.574;2022-09-29T18:15:21;1.52;;;0.73;;
61505;SDS011;47366;51.916;4.574;2022-09-29T18:17:47;1.58;;;0.82;;
61505;SDS011;47366;51.916;4.574;2022-09-29T18:22:40;1.05;;;0.75;;
61505;SDS011;47366;51.916;4.574;2022-09-29T18:25:07;3.65;;;0.90;;
61505;SDS011;47366;51.916;4.574;2022-09-29T18:27:33;1.55;;;1.00;;
61505;SDS011;47366;51.916;4.574;2022-09-29T18:29:59;1.90;;;1.10;;
61505;SDS011;47366;51.916;4.574;2022-09-29T18:32:25;1.45;;;0.70;;
61505;SDS011;47366;51.916;4.574;2022-09-29T18:34:50;1.10;;;0.80;;